ABX weather

Albury Airport
Albury, New South Wales, Australia

Public forecast

Using degrees Celsius for public forecast. Weather courtesy of forecast.io.

METAR (pilot weather report)

Retrieved 2019/03/20 23:00 UTC (13 minutes ago):

YMAY 202300Z AUTO 10005KT 9999 // NCD 25/16 Q1016

TAF (pilot weather forecast)

Closest forecast is Wangaratta Airport, 37.8 nm (70.0 km) WSW. Retrieved 2019/03/20 19:03 UTC (4 hours ago):

TAF YWGT 201736Z 2019/2108 VRB05KT CAVOK PROB30 2019/2023 5000 FU